createdAt,value
2023-01-09T00:01:51.731Z,98831.72
2023-01-09T00:04:19.754Z,98829.91
2023-01-09T00:06:53.712Z,98811.09
2023-01-09T00:09:22.065Z,98817.69
2023-01-09T00:11:50.288Z,98815.78
2023-01-09T00:14:18.108Z,98808.47
2023-01-09T00:16:47.088Z,98807.59
2023-01-09T00:19:14.628Z,98804.34
2023-01-09T00:21:42.170Z,98798.41
2023-01-09T00:24:10.681Z,98791.25
2023-01-09T00:26:38.135Z,98799.19
2023-01-09T00:29:05.638Z,98790.00
2023-01-09T00:31:33.081Z,98784.44
2023-01-09T00:34:04.605Z,98786.13
2023-01-09T00:36:32.049Z,98778.38
2023-01-09T00:38:59.701Z,98784.53
2023-01-09T00:41:28.946Z,98781.66
2023-01-09T00:43:59.461Z,98772.91
2023-01-09T00:46:31.619Z,98770.66
2023-01-09T00:48:59.220Z,98765.75
2023-01-09T00:51:28.707Z,98767.34
2023-01-09T00:53:56.249Z,98762.06
2023-01-09T00:56:23.868Z,98766.97
2023-01-09T00:58:52.782Z,98762.06
2023-01-09T01:01:20.299Z,98757.31
2023-01-09T01:03:47.818Z,98750.66
2023-01-09T01:06:44.444Z,98753.72
2023-01-09T01:09:13.228Z,98753.31
2023-01-09T01:11:40.657Z,98756.38
2023-01-09T01:14:08.143Z,98741.50
2023-01-09T01:16:35.603Z,98744.91
2023-01-09T01:19:03.054Z,98741.63
2023-01-09T01:21:30.487Z,98735.53
2023-01-09T01:23:57.967Z,98732.03
2023-01-09T01:26:26.736Z,98724.38
2023-01-09T01:28:54.192Z,98727.78
2023-01-09T01:31:21.642Z,98740.47
2023-01-09T01:33:49.119Z,98745.31
2023-01-09T01:36:17.785Z,98738.31
2023-01-09T01:38:46.743Z,98737.63
2023-01-09T01:41:14.225Z,98743.16
2023-01-09T01:43:54.467Z,98744.97
2023-01-09T01:46:22.275Z,98744.19
2023-01-09T01:48:52.528Z,98753.16
2023-01-09T01:51:21.028Z,98762.06
2023-01-09T01:53:52.413Z,98772.50
2023-01-09T01:56:24.382Z,98767.50
2023-01-09T01:58:56.814Z,98766.41
2023-01-09T02:01:25.493Z,98776.78
2023-01-09T02:03:54.487Z,98782.09
2023-01-09T02:06:21.941Z,98786.63
2023-01-09T02:08:49.696Z,98792.38
2023-01-09T02:11:18.741Z,98793.44
2023-01-09T02:13:46.487Z,98796.47
2023-01-09T02:16:26.949Z,98795.00
2023-01-09T02:18:59.462Z,98790.78
2023-01-09T02:21:34.853Z,98801.44
2023-01-09T02:24:39.364Z,98798.50
2023-01-09T02:27:21.078Z,98802.16
2023-01-09T02:30:21.811Z,98804.28
2023-01-09T02:32:57.749Z,98805.44
2023-01-09T02:35:35.933Z,98799.03
2023-01-09T02:38:08.450Z,98796.97
2023-01-09T02:40:39.983Z,98796.38
2023-01-09T02:43:08.429Z,98810.03
2023-01-09T02:45:37.253Z,98792.69
2023-01-09T02:48:05.054Z,98792.53
2023-01-09T02:50:38.087Z,98796.59
2023-01-09T02:53:33.997Z,98812.53
2023-01-09T02:56:12.210Z,98809.06
2023-01-09T02:58:57.856Z,98811.13
2023-01-09T03:01:34.144Z,98807.19
2023-01-09T03:04:07.377Z,98816.84
2023-01-09T03:06:39.404Z,98828.06
2023-01-09T03:09:09.995Z,98836.84
2023-01-09T03:11:43.715Z,98840.28
2023-01-09T03:14:14.939Z,98850.63
2023-01-09T03:16:46.653Z,98850.25
2023-01-09T03:19:16.814Z,98845.03
2023-01-09T03:21:44.830Z,98849.47
2023-01-09T03:24:12.252Z,98856.19
2023-01-09T03:26:39.739Z,98854.16
2023-01-09T03:29:07.223Z,98864.31
2023-01-09T03:31:34.777Z,98865.19
2023-01-09T03:34:03.572Z,98859.84
2023-01-09T03:36:31.208Z,98857.00
2023-01-09T03:38:58.664Z,98871.28
2023-01-09T03:41:26.142Z,98894.31
2023-01-09T03:43:53.591Z,98889.22
2023-01-09T03:46:21.061Z,98887.19
2023-01-09T03:48:48.635Z,98887.19
2023-01-09T03:51:17.482Z,98902.28
2023-01-09T03:53:44.923Z,98901.06
2023-01-09T03:56:12.455Z,98890.66
2023-01-09T03:58:39.886Z,98891.69
2023-01-09T04:01:09.358Z,98894.13
2023-01-09T04:03:37.025Z,98897.00
2023-01-09T04:06:04.959Z,98890.03
2023-01-09T04:08:33.774Z,98899.84
2023-01-09T04:11:01.242Z,98892.50
2023-01-09T04:13:28.720Z,98904.53
2023-01-09T04:15:56.241Z,98906.75
2023-01-09T04:18:23.682Z,98912.06
2023-01-09T04:20:51.144Z,98909.00
2023-01-09T04:23:18.632Z,98909.22
2023-01-09T04:25:47.654Z,98916.16
2023-01-09T04:28:15.153Z,98924.28
2023-01-09T04:30:42.629Z,98938.75
2023-01-09T04:33:10.067Z,98946.06
2023-01-09T04:35:37.553Z,98951.16
2023-01-09T04:38:05.008Z,98964.00
2023-01-09T04:40:32.462Z,98968.44
2023-01-09T04:43:01.258Z,98977.41
2023-01-09T04:45:28.798Z,98979.88
2023-01-09T04:47:56.310Z,98987.38
2023-01-09T04:50:23.765Z,98999.38
2023-01-09T04:52:51.238Z,99006.34
2023-01-09T04:55:18.852Z,99009.78
2023-01-09T04:57:46.301Z,99011.44
2023-01-09T05:00:15.822Z,99003.66
2023-01-09T05:02:43.314Z,99008.75
2023-01-09T05:05:12.093Z,99007.91
2023-01-09T05:07:39.909Z,99016.28
2023-01-09T05:10:08.665Z,99015.47
2023-01-09T05:12:36.435Z,99013.84
2023-01-09T05:15:03.976Z,99007.31
2023-01-09T05:17:32.805Z,99021.78
2023-01-09T05:20:00.775Z,99030.72
2023-01-09T05:22:28.416Z,99033.59
2023-01-09T05:24:55.947Z,99032.13
2023-01-09T05:27:23.449Z,99037.63
2023-01-09T05:29:50.943Z,99039.50
2023-01-09T05:32:18.398Z,99028.88
2023-01-09T05:34:47.173Z,99033.16
2023-01-09T05:37:14.625Z,99033.97
2023-01-09T05:39:42.076Z,99036.44
2023-01-09T05:42:09.542Z,99045.59
2023-01-09T05:44:37.026Z,99040.69
2023-01-09T05:47:04.597Z,99058.81
2023-01-09T05:49:32.057Z,99065.94
2023-01-09T05:52:00.919Z,99076.16
2023-01-09T05:54:28.362Z,99084.25
2023-01-09T05:56:55.895Z,99087.66
2023-01-09T05:59:23.415Z,99099.22
2023-01-09T06:01:51.005Z,99098.19
2023-01-09T06:04:18.481Z,99099.84
2023-01-09T06:06:45.951Z,99097.63
2023-01-09T06:09:14.804Z,99105.53
2023-01-09T06:11:42.255Z,99101.25
2023-01-09T06:14:09.787Z,99109.69
2023-01-09T06:16:37.285Z,99111.34
2023-01-09T06:19:05.723Z,99113.91
2023-01-09T06:21:33.222Z,99117.34
2023-01-09T06:24:00.806Z,99113.13
2023-01-09T06:26:29.657Z,99127.91
2023-01-09T06:28:57.185Z,99129.19
2023-01-09T06:31:25.466Z,99137.13
2023-01-09T06:33:53.196Z,99132.50
2023-01-09T06:36:22.585Z,99141.47
2023-01-09T06:38:50.191Z,99152.03
2023-01-09T06:41:17.783Z,99149.66
2023-01-09T06:43:46.624Z,99156.78
2023-01-09T06:46:14.139Z,99167.19
2023-01-09T06:48:41.659Z,99169.69
2023-01-09T06:51:09.113Z,99170.69
2023-01-09T06:53:36.571Z,99174.31
2023-01-09T06:56:04.162Z,99173.34
2023-01-09T06:58:31.643Z,99171.72
2023-01-09T07:01:00.712Z,99174.31
2023-01-09T07:03:28.281Z,99177.41
2023-01-09T07:05:55.804Z,99177.78
2023-01-09T07:08:23.278Z,99179.84
2023-01-09T07:10:50.764Z,99177.63
2023-01-09T07:13:18.244Z,99181.66
2023-01-09T07:15:45.794Z,99185.31
2023-01-09T07:18:14.616Z,99160.88
2023-01-09T07:20:42.542Z,99167.19
2023-01-09T07:23:11.997Z,99170.69
2023-01-09T07:25:39.589Z,99182.06
2023-01-09T07:28:07.037Z,99191.63
2023-01-09T07:30:34.527Z,99196.28
2023-01-09T07:33:03.881Z,99198.81
2023-01-09T07:35:33.081Z,99195.75
2023-01-09T07:38:00.543Z,99199.19
2023-01-09T07:40:28.008Z,99197.91
2023-01-09T07:42:55.580Z,99205.16
2023-01-09T07:45:23.063Z,99208.44
2023-01-09T07:47:52.197Z,99212.91
2023-01-09T07:50:20.207Z,99213.91
2023-01-09T07:52:49.197Z,99210.44
2023-01-09T07:55:17.631Z,99220.28
2023-01-09T07:57:49.281Z,99227.59
2023-01-09T08:00:17.411Z,99228.00
2023-01-09T08:02:45.013Z,99230.09
2023-01-09T08:05:14.846Z,99232.13
2023-01-09T08:07:42.489Z,99233.53
2023-01-09T08:10:12.621Z,99237.59
2023-01-09T08:12:43.597Z,99226.44
2023-01-09T08:15:11.842Z,99229.50
2023-01-09T08:17:42.974Z,99223.81
2023-01-09T08:20:12.159Z,99232.28
2023-01-09T08:22:39.989Z,99223.97
2023-01-09T08:25:09.515Z,99234.56
2023-01-09T08:27:40.378Z,99239.47
2023-01-09T08:30:09.611Z,99228.09
2023-01-09T08:32:37.332Z,99233.41
2023-01-09T08:35:05.222Z,99235.06
2023-01-09T08:37:32.724Z,99233.38
2023-01-09T08:40:00.191Z,99238.28
2023-01-09T08:42:50.713Z,99239.47
2023-01-09T08:45:37.224Z,99233.63
2023-01-09T08:48:05.003Z,99235.75
2023-01-09T08:50:33.553Z,99232.66
2023-01-09T08:53:01.020Z,99234.13
2023-01-09T08:55:28.483Z,99235.75
2023-01-09T08:57:56.716Z,99240.06
2023-01-09T09:00:26.083Z,99241.50
2023-01-09T09:02:54.538Z,99243.16
2023-01-09T09:05:22.705Z,99238.88
2023-01-09T09:07:50.227Z,99247.41
2023-01-09T09:10:18.431Z,99246.19
2023-01-09T09:12:46.282Z,99244.56
2023-01-09T09:15:13.772Z,99245.00
2023-01-09T09:17:43.141Z,99255.59
2023-01-09T09:20:11.927Z,99249.50
2023-01-09T09:22:39.417Z,99255.38
2023-01-09T09:25:07.502Z,99260.03
2023-01-09T09:27:36.456Z,99267.34
2023-01-09T09:30:04.502Z,99271.03
2023-01-09T09:32:32.102Z,99258.41
2023-01-09T09:35:00.912Z,99267.41
2023-01-09T09:37:28.418Z,99270.66
2023-01-09T09:39:56.813Z,99274.69
2023-01-09T09:42:57.669Z,99278.84
2023-01-09T09:45:34.328Z,99265.75
2023-01-09T09:48:10.092Z,99276.38
2023-01-09T09:50:52.685Z,99279.25
2023-01-09T09:53:23.088Z,99281.59
2023-01-09T09:55:51.607Z,99275.94
2023-01-09T09:58:22.747Z,99284.28
2023-01-09T10:00:50.861Z,99283.22
2023-01-09T10:03:33.830Z,99273.22
2023-01-09T10:06:05.755Z,99277.28
2023-01-09T10:08:38.961Z,99279.16
2023-01-09T10:11:14.335Z,99274.84
2023-01-09T10:13:59.311Z,99274.69
2023-01-09T10:16:40.309Z,99268.56
2023-01-09T10:19:19.268Z,99266.69
2023-01-09T10:21:55.853Z,99267.91
2023-01-09T10:24:32.705Z,99274.25
2023-01-09T10:27:04.000Z,99264.88
2023-01-09T10:29:41.681Z,99266.09
2023-01-09T10:35:55.120Z,99266.84
2023-01-09T10:38:26.264Z,99276.91
2023-01-09T10:41:01.321Z,99272.16
2023-01-09T10:43:32.229Z,99277.88
2023-01-09T10:46:03.150Z,99264.03
2023-01-09T10:48:33.551Z,99256.03
2023-01-09T10:51:01.043Z,99264.44
2023-01-09T10:53:33.545Z,99257.28
2023-01-09T10:56:04.524Z,99248.69
2023-01-09T10:58:32.231Z,99242.25
2023-01-09T11:01:01.467Z,99254.28
2023-01-09T11:03:29.872Z,99251.47
2023-01-09T11:05:58.792Z,99249.28
2023-01-09T11:08:31.616Z,99247.03
2023-01-09T11:11:00.902Z,99247.28
2023-01-09T11:13:30.290Z,99246.66
2023-01-09T11:16:08.077Z,99244.00
2023-01-09T11:18:36.519Z,99253.97
2023-01-09T11:21:27.030Z,99249.88
2023-01-09T11:23:56.077Z,99260.13
2023-01-09T11:26:25.344Z,99255.66
2023-01-09T11:29:10.993Z,99258.13
2023-01-09T11:31:38.772Z,99256.09
2023-01-09T11:34:08.062Z,99258.97
2023-01-09T11:36:35.586Z,99255.91
2023-01-09T11:39:04.665Z,99256.16
2023-01-09T11:41:34.809Z,99258.94
2023-01-09T11:44:04.107Z,99260.97
2023-01-09T11:46:38.095Z,99272.88
2023-01-09T11:49:07.576Z,99265.31
2023-01-09T11:51:36.757Z,99269.41
2023-01-09T11:54:17.565Z,99277.16
2023-01-09T11:56:45.365Z,99276.16
2023-01-09T11:59:14.222Z,99278.59
2023-01-09T12:02:14.266Z,99282.69
2023-01-09T12:04:45.493Z,99279.63
2023-01-09T12:08:03.029Z,99271.25
2023-01-09T12:10:59.386Z,99262.28
2023-01-09T12:13:39.227Z,99266.75
2023-01-09T12:16:12.427Z,99265.94
2023-01-09T12:18:49.908Z,99270.00
2023-01-09T12:21:35.887Z,99275.41
2023-01-09T12:24:25.274Z,99280.09
2023-01-09T12:27:02.244Z,99276.19
2023-01-09T12:30:03.101Z,99267.44
2023-01-09T12:32:42.186Z,99277.41
2023-01-09T12:35:20.635Z,99272.72
2023-01-09T12:38:02.458Z,99272.28
2023-01-09T12:40:43.505Z,99273.06
2023-01-09T12:43:20.123Z,99269.88
2023-01-09T12:45:57.806Z,99271.28
2023-01-09T12:48:40.382Z,99276.59
2023-01-09T12:51:17.687Z,99275.00
2023-01-09T12:53:48.367Z,99279.09
2023-01-09T12:56:17.910Z,99287.28
2023-01-09T12:58:48.879Z,99291.56
2023-01-09T13:01:19.013Z,99287.94
2023-01-09T13:03:52.332Z,99287.56
2023-01-09T13:06:22.123Z,99281.03
2023-01-09T13:08:54.410Z,99274.91
2023-01-09T13:11:27.100Z,99273.66
2023-01-09T13:13:58.260Z,99278.38
2023-01-09T13:16:28.362Z,99280.81
2023-01-09T13:18:58.867Z,99287.97
2023-01-09T13:21:26.875Z,99291.19
2023-01-09T13:23:56.883Z,99272.03
2023-01-09T13:26:26.998Z,99289.16
2023-01-09T13:29:00.485Z,99296.47
2023-01-09T13:31:51.569Z,99293.81
2023-01-09T13:34:22.547Z,99292.97
2023-01-09T13:36:51.738Z,99289.94
2023-01-09T13:39:24.376Z,99289.56
2023-01-09T13:42:14.040Z,99296.47
2023-01-09T13:44:43.500Z,99292.59
2023-01-09T13:47:18.787Z,99292.38
2023-01-09T13:50:01.009Z,99292.78
2023-01-09T13:52:34.261Z,99300.09
2023-01-09T13:55:35.696Z,99308.69
2023-01-09T13:58:22.358Z,99315.63
2023-01-09T14:00:53.940Z,99313.75
2023-01-09T14:03:25.819Z,99314.34
2023-01-09T14:06:20.355Z,99324.97
2023-01-09T14:08:49.193Z,99311.50
2023-01-09T14:11:20.725Z,99316.75
2023-01-09T14:13:53.833Z,99317.78
2023-01-09T14:16:24.888Z,99323.06
2023-01-09T14:18:54.483Z,99317.53
2023-01-09T14:21:25.229Z,99318.34
2023-01-09T14:24:02.798Z,99327.41
2023-01-09T14:26:44.389Z,99322.44
2023-01-09T14:29:44.468Z,99329.81
2023-01-09T14:32:47.417Z,99329.78
2023-01-09T14:35:19.083Z,99343.94
2023-01-09T14:37:54.225Z,99354.53
2023-01-09T14:40:23.643Z,99345.16
2023-01-09T14:42:55.063Z,99356.81
2023-01-09T14:45:24.847Z,99376.72
2023-01-09T14:47:56.827Z,99370.38
2023-01-09T14:50:30.499Z,99385.06
2023-01-09T14:53:03.413Z,99391.59
2023-01-09T14:55:34.498Z,99403.19
2023-01-09T14:58:11.658Z,99404.22
2023-01-09T15:00:48.051Z,99405.03
2023-01-09T15:03:17.406Z,99415.63
2023-01-09T15:05:45.525Z,99410.28
2023-01-09T15:08:16.724Z,99427.59
2023-01-09T15:10:45.356Z,99436.28
2023-01-09T15:13:16.503Z,99438.75
2023-01-09T15:15:46.205Z,99444.03
2023-01-09T15:18:21.367Z,99443.28
2023-01-09T15:20:53.113Z,99449.25
2023-01-09T15:23:25.300Z,99447.56
2023-01-09T15:25:53.245Z,99456.13
2023-01-09T15:28:30.673Z,99456.78
2023-01-09T15:31:01.965Z,99461.44
2023-01-09T15:33:30.925Z,99468.34
2023-01-09T15:36:02.448Z,99469.81
2023-01-09T15:38:32.511Z,99472.59
2023-01-09T15:41:01.042Z,99472.22
2023-01-09T15:43:30.054Z,99475.13
2023-01-09T15:45:58.921Z,99478.81
2023-01-09T15:48:29.268Z,99475.06
2023-01-09T15:51:01.656Z,99485.53
2023-01-09T15:53:29.748Z,99484.78
2023-01-09T15:56:08.745Z,99492.94
2023-01-09T15:58:37.798Z,99501.41
2023-01-09T16:01:07.786Z,99499.00
2023-01-09T16:03:37.570Z,99500.66
2023-01-09T16:06:10.811Z,99509.38
2023-01-09T16:08:40.829Z,99511.50
2023-01-09T16:11:10.949Z,99512.63
2023-01-09T16:13:44.641Z,99517.34
2023-01-09T16:16:13.221Z,99522.16
2023-01-09T16:18:51.125Z,99517.44
2023-01-09T16:21:32.292Z,99521.09
2023-01-09T16:24:02.962Z,99531.13
2023-01-09T16:26:31.487Z,99525.38
2023-01-09T16:29:33.453Z,99525.13
2023-01-09T16:32:01.802Z,99538.78
2023-01-09T16:34:29.730Z,99538.91
2023-01-09T16:36:58.640Z,99550.22
2023-01-09T16:39:26.408Z,99563.44
2023-01-09T16:42:14.959Z,99564.28
2023-01-09T16:44:42.475Z,99570.50
2023-01-09T16:47:11.937Z,99575.66
2023-01-09T16:49:39.526Z,99576.22
2023-01-09T16:52:15.845Z,99586.44
2023-01-09T16:54:46.631Z,99596.25
2023-01-09T16:57:17.631Z,99603.63
2023-01-09T16:59:45.321Z,99611.38
2023-01-09T17:02:18.291Z,99614.34
2023-01-09T17:04:45.925Z,99622.06
2023-01-09T17:07:16.002Z,99618.31
2023-01-09T17:09:43.893Z,99619.78
2023-01-09T17:12:16.332Z,99628.00
2023-01-09T17:14:43.925Z,99624.63
2023-01-09T17:17:12.393Z,99633.78
2023-01-09T17:19:40.208Z,99633.28
2023-01-09T17:22:07.656Z,99632.44
2023-01-09T17:24:53.871Z,99645.75
2023-01-09T17:27:45.007Z,99645.38
2023-01-09T17:30:18.843Z,99644.22
2023-01-09T17:32:46.854Z,99652.88
2023-01-09T17:35:15.366Z,99648.69
2023-01-09T17:37:43.417Z,99651.50
2023-01-09T17:40:17.867Z,99658.97
2023-01-09T17:42:45.430Z,99670.50
2023-01-09T17:45:13.119Z,99678.44
2023-01-09T17:47:40.915Z,99682.72
2023-01-09T17:50:11.439Z,99678.16
2023-01-09T17:52:38.897Z,99681.50
2023-01-09T17:55:07.628Z,99687.16
2023-01-09T17:57:36.507Z,99686.81
2023-01-09T18:00:06.010Z,99701.88
2023-01-09T18:02:33.536Z,99701.75
2023-01-09T18:05:01.074Z,99712.41
2023-01-09T18:07:28.529Z,99717.53
2023-01-09T18:09:55.978Z,99726.84
2023-01-09T18:12:23.416Z,99729.91
2023-01-09T18:14:53.875Z,99730.88
2023-01-09T18:17:21.406Z,99740.59
2023-01-09T18:19:50.083Z,99750.28
2023-01-09T18:22:17.548Z,99761.34
2023-01-09T18:24:45.080Z,99765.38
2023-01-09T18:27:12.521Z,99771.66
2023-01-09T18:29:40.028Z,99774.19
2023-01-09T18:32:08.975Z,99787.19
2023-01-09T18:34:36.523Z,99788.53
2023-01-09T18:37:04.026Z,99797.56
2023-01-09T18:39:31.675Z,99806.56
2023-01-09T18:41:59.536Z,99801.75
2023-01-09T18:44:27.536Z,99800.22
2023-01-09T18:46:55.358Z,99812.88
2023-01-09T18:49:24.251Z,99809.25
2023-01-09T18:51:51.837Z,99832.75
2023-01-09T18:54:19.695Z,99832.97
2023-01-09T18:56:47.332Z,99846.00
2023-01-09T18:59:15.086Z,99845.78
2023-01-09T19:01:43.239Z,99856.47
2023-01-09T19:04:10.853Z,99850.13
2023-01-09T19:06:39.884Z,99840.38
2023-01-09T19:09:07.473Z,99841.06
2023-01-09T19:11:35.025Z,99855.56
2023-01-09T19:14:02.700Z,99854.56
2023-01-09T19:16:33.813Z,99867.72
2023-01-09T19:19:02.653Z,99869.53
2023-01-09T19:21:30.595Z,99866.53
2023-01-09T19:23:59.885Z,99876.03
2023-01-09T19:26:31.826Z,99879.19
2023-01-09T19:29:00.809Z,99878.41
2023-01-09T19:31:29.722Z,99874.97
2023-01-09T19:33:57.869Z,99889.88
2023-01-09T19:36:25.647Z,99892.97
2023-01-09T19:38:56.791Z,99880.63
2023-01-09T19:41:25.717Z,99888.38
2023-01-09T19:43:54.190Z,99893.16
2023-01-09T19:46:23.932Z,99899.66
2023-01-09T19:48:52.582Z,99898.66
2023-01-09T19:51:22.538Z,99913.03
2023-01-09T19:53:53.415Z,99910.50
2023-01-09T19:56:22.693Z,99915.13
2023-01-09T19:58:52.867Z,99921.25
2023-01-09T20:01:24.415Z,99914.66
2023-01-09T20:03:52.850Z,99927.06
2023-01-09T20:06:24.079Z,99946.53
2023-01-09T20:08:54.100Z,99953.34
2023-01-09T20:11:22.491Z,99950.78
2023-01-09T20:13:51.601Z,99959.09
2023-01-09T20:16:20.965Z,99962.31
2023-01-09T20:18:49.156Z,99972.88
2023-01-09T20:21:18.494Z,99973.22
2023-01-09T20:23:46.009Z,99973.72
2023-01-09T20:26:13.696Z,99980.63
2023-01-09T20:28:41.411Z,99989.72
2023-01-09T20:31:11.887Z,99992.38
2023-01-09T20:33:40.328Z,99992.03
2023-01-09T20:36:09.383Z,100002.28
2023-01-09T20:38:37.836Z,99998.03
2023-01-09T20:41:09.889Z,99999.50
2023-01-09T20:43:37.631Z,100000.34
2023-01-09T20:46:06.029Z,100005.13
2023-01-09T20:48:35.059Z,100005.84
2023-01-09T20:51:06.883Z,100006.03
2023-01-09T20:53:34.548Z,100015.97
2023-01-09T20:56:02.525Z,100016.78
2023-01-09T20:58:30.137Z,100015.47
2023-01-09T21:00:57.817Z,100035.13
2023-01-09T21:03:25.404Z,100035.75
2023-01-09T21:05:54.301Z,100038.59
2023-01-09T21:08:21.847Z,100040.56
2023-01-09T21:10:49.364Z,100043.56
2023-01-09T21:13:17.069Z,100044.84
2023-01-09T21:15:44.663Z,100050.31
2023-01-09T21:18:12.230Z,100052.75
2023-01-09T21:20:40.681Z,100052.13
2023-01-09T21:23:09.749Z,100061.69
2023-01-09T21:25:39.527Z,100053.75
2023-01-09T21:28:07.325Z,100069.91
2023-01-09T21:30:37.601Z,100069.91
2023-01-09T21:33:05.379Z,100081.81
2023-01-09T21:35:32.878Z,100087.16
2023-01-09T21:38:02.442Z,100082.50
2023-01-09T21:40:31.374Z,100093.09
2023-01-09T21:43:16.744Z,100103.81
2023-01-09T21:46:13.550Z,100104.00
2023-01-09T21:48:41.044Z,100112.06
2023-01-09T21:51:08.562Z,100115.84
2023-01-09T21:53:36.090Z,100114.88
2023-01-09T21:56:05.850Z,100122.47
2023-01-09T21:58:33.867Z,100131.69
2023-01-09T22:01:03.348Z,100128.59
2023-01-09T22:03:30.995Z,100119.84
2023-01-09T22:05:58.532Z,100137.34
2023-01-09T22:08:26.090Z,100139.31
2023-01-09T22:10:59.791Z,100139.13
2023-01-09T22:13:29.193Z,100135.84
2023-01-09T22:16:02.941Z,100137.50
2023-01-09T22:18:30.568Z,100147.41
2023-01-09T22:20:58.193Z,100152.03
2023-01-09T22:23:25.913Z,100158.63
2023-01-09T22:25:54.574Z,100162.47
2023-01-09T22:28:25.496Z,100166.09
2023-01-09T22:30:54.524Z,100173.16
2023-01-09T22:33:23.580Z,100179.94
2023-01-09T22:35:52.681Z,100187.69
2023-01-09T22:38:20.303Z,100198.38
2023-01-09T22:40:48.943Z,100197.34
2023-01-09T22:43:18.451Z,100201.38
2023-01-09T22:45:46.076Z,100203.34
2023-01-09T22:48:15.049Z,100205.03
2023-01-09T22:50:45.775Z,100212.78
2023-01-09T22:53:13.291Z,100219.59
2023-01-09T22:55:40.920Z,100227.84
2023-01-09T22:58:08.427Z,100228.03
2023-01-09T23:00:35.929Z,100234.47
2023-01-09T23:03:03.536Z,100231.81
2023-01-09T23:05:32.506Z,100241.66
2023-01-09T23:08:00.378Z,100249.31
2023-01-09T23:10:27.820Z,100246.19
2023-01-09T23:12:55.292Z,100247.38
2023-01-09T23:15:22.718Z,100255.59
2023-01-09T23:17:50.177Z,100259.91
2023-01-09T23:20:17.813Z,100269.47
2023-01-09T23:22:47.527Z,100266.84
2023-01-09T23:25:15.676Z,100273.38
2023-01-09T23:27:43.535Z,100276.97
2023-01-09T23:30:12.833Z,100281.91
2023-01-09T23:32:40.276Z,100291.44
2023-01-09T23:35:08.246Z,100294.09
2023-01-09T23:37:35.739Z,100290.94
2023-01-09T23:40:05.417Z,100291.03
2023-01-09T23:42:50.764Z,100297.94
2023-01-09T23:45:18.486Z,100306.06
2023-01-09T23:47:45.904Z,100300.63
2023-01-09T23:50:13.365Z,100303.88
2023-01-09T23:52:40.949Z,100310.81
2023-01-09T23:55:13.103Z,100310.50
2023-01-09T23:57:40.559Z,100315.06
